Clare Christine — V2DT7 — position and weather

sailwx.info

Track history (hours):
 
Tides and Currents Weather Stations Pressure Air Temp Water Temp Dewpoint Dewpoint Depression Visibility Wind Speed Wind Dir Waves Ship Positions

Clare Christine

Last reported at 2015-Mar-05 23:16 UTC. Time now 2015-Mar-06 04:03 UTC.
Position N 52°52' E 003°23'.

Length 89 m; draft 5.6 m.

Type: Cargo ship. MMSI: 305379000.

Date/timePositionNaut miles runAvg speedWind from/ knotsBaromVisibWave heightAir tempDewpointWater temp
2015-Mar-05 23:16N 52°52' E 003°23'9 8.5
2015-Mar-05 22:12N 52°53' E 003°37'17 9.1
2015-Mar-05 20:17N 52°59' E 004°05'8 9.7
2015-Mar-05 19:27N 53°04' E 004°15'8 8.9
2015-Mar-05 18:33N 53°10' E 004°25'9 8.6
2015-Mar-05 17:30N 53°18' E 004°31'8 8.2
2015-Mar-05 16:30N 53°25' E 004°36'7 7.8
2015-Mar-05 15:33N 53°30' E 004°46'10 9.6
2015-Mar-05 14:33N 53°33' E 005°01'1010.4
2015-Mar-05 13:33N 53°37' E 005°17'1010.4
2015-Mar-05 12:33N 53°40' E 005°34'1010.1
2015-Mar-05 11:33N 53°43' E 005°50'10 9.3
2015-Mar-05 10:28N 53°46' E 006°06'8 8.7
2015-Mar-05 09:32N 53°49' E 006°20'32 8.2
2015-Mar-05 05:33N 53°57' E 007°13'9 9.4
2015-Mar-05 04:33N 53°60' E 007°28'9 9.4
2015-Mar-05 03:33N 54°02' E 007°43'9 9.4
2015-Mar-05 02:33N 54°02' E 007°60'10 9.5
2015-Mar-05 01:32N 54°01' E 008°16'1010.1
2015-Mar-05 00:33N 53°58' E 008°32'7 7.1
2015-Mar-04 23:33N 53°54' E 008°42'7 6.8
2015-Mar-04 22:33N 53°50' E 008°52'7 7.5
2015-Mar-04 21:33N 53°52' E 009°04'3 3.0
2015-Mar-04 20:33N 53°54' E 009°09'5 5.4
2015-Mar-04 19:34N 53°58' E 009°15'9 8.7
2015-Mar-04 18:33N 54°06' E 009°20'8 7.9
2015-Mar-04 17:32N 54°11' E 009°30'8 7.8
2015-Mar-04 16:33N 54°17' E 009°39'7 6.7
2015-Mar-04 15:33N 54°21' E 009°47'8 7.7
2015-Mar-04 14:33N 54°21' E 010°00'5 4.8
2015-Mar-04 13:33N 54°22' E 010°08'0 0.4
2015-Mar-04 12:33N 54°22' E 010°09'6 5.9
2015-Mar-04 11:33N 54°27' E 010°14'9 8.6
2015-Mar-04 10:34N 54°32' E 010°26'9 8.9
2015-Mar-04 09:33N 54°35' E 010°41'9 9.0
2015-Mar-04 08:33N 54°36' E 010°56'9 8.9
2015-Mar-04 07:33N 54°36' E 011°11'8 8.2
2015-Mar-04 06:33N 54°32' E 011°24'8 8.1
2015-Mar-04 05:33N 54°29' E 011°37'8 8.3
2015-Mar-04 04:33N 54°27' E 011°51'9 8.6
2015-Mar-04 03:33N 54°27' E 012°05'13 8.6
2015-Mar-04 02:03N 54°38' E 012°17'5 9.1
2015-Mar-04 01:32N 54°40' E 012°24'9 9.1
2015-Mar-04 00:33N 54°45' E 012°37'10 9.5
2015-Mar-03 23:32N 54°49' E 012°52'9 9.7
2015-Mar-03 22:33N 54°52' E 013°07'9 8.3
2015-Mar-03 21:26N 54°53' E 013°24'9 9.4
2015-Mar-03 20:26N 54°46' E 013°35'10 9.6
2015-Mar-03 19:24N 54°38' E 013°43'810.0
2015-Mar-03 18:33N 54°30' E 013°49'1010.0
2015-Mar-03 17:33N 54°20' E 013°50'9 9.0
2015-Mar-03 16:33N 54°13' E 013°40'5 5.3
2015-Mar-03 15:33N 54°09' E 013°34'1 1.1
2015-Mar-03 14:32N 54°08' E 013°34'0 0.0
2015-Mar-03 13:32N 54°08' E 013°34'0 0.0
2015-Mar-03 12:32N 54°08' E 013°34'0 0.0
2015-Mar-03 11:32N 54°08' E 013°34'0 0.0
2015-Mar-03 10:32N 54°08' E 013°34'0 0.0
2015-Mar-03 09:32N 54°08' E 013°34'0 0.0
2015-Mar-03 08:32N 54°08' E 013°34'0 0.0
2015-Mar-03 07:32N 54°08' E 013°34'0 0.0
2015-Mar-03 06:32N 54°08' E 013°34'0 0.0
2015-Mar-03 05:32N 54°08' E 013°34'0 0.0
2015-Mar-03 04:32N 54°08' E 013°34'0 0.0
2015-Mar-03 03:32N 54°08' E 013°34'0 0.0
2015-Mar-03 02:32N 54°08' E 013°34'0 0.0
2015-Mar-03 01:32N 54°08' E 013°34'0 0.0
2015-Mar-03 00:32N 54°08' E 013°34'0 0.0
2015-Mar-02 23:32N 54°08' E 013°34'0 0.0
2015-Mar-02 22:32N 54°08' E 013°34'0 0.0
2015-Mar-02 21:32N 54°08' E 013°34'0 0.0
2015-Mar-02 20:32N 54°08' E 013°34'0 0.0
2015-Mar-02 19:32N 54°08' E 013°34'0 0.0
2015-Mar-02 18:32N 54°08' E 013°34'0 0.0
2015-Mar-02 17:32N 54°08' E 013°34'0 0.0
2015-Mar-02 16:29N 54°08' E 013°34'0 0.0
2015-Mar-02 15:32N 54°08' E 013°34'0 0.0
2015-Mar-02 14:32N 54°08' E 013°34'0 0.0
2015-Mar-02 13:32N 54°08' E 013°34'0 0.0
2015-Mar-02 12:32N 54°08' E 013°34'0 0.0
2015-Mar-02 11:32N 54°08' E 013°34'0 0.0
2015-Mar-02 10:32N 54°08' E 013°34'0 0.0
2015-Mar-02 09:32N 54°08' E 013°34'0 0.0
2015-Mar-02 08:33N 54°08' E 013°34'3 3.0
2015-Mar-02 07:33N 54°11' E 013°35'8 7.8
2015-Mar-02 06:33N 54°16' E 013°45'8 7.7
2015-Mar-02 05:33N 54°23' E 013°49'10 9.6
2015-Mar-02 04:33N 54°33' E 013°44'1010.3
2015-Mar-02 03:33N 54°42' E 013°36'9 9.0
2015-Mar-02 02:33N 54°45' E 013°22'1010.3
2015-Mar-02 01:33N 54°45' E 013°04'1010.2
2015-Mar-02 00:33N 54°45' E 012°46'1010.4
2015-Mar-01 23:33N 54°40' E 012°31'1110.5
2015-Mar-01 22:33N 54°32' E 012°18'1010.2
2015-Mar-01 21:33N 54°24' E 012°07'1111.3
2015-Mar-01 20:33N 54°24' E 011°48'1111.2
2015-Mar-01 19:33N 54°29' E 011°31'10 9.7
2015-Mar-01 18:33N 54°34' E 011°16'9 9.4
2015-Mar-01 17:33N 54°34' E 010°60'1111.0
2015-Mar-01 16:33N 54°34' E 010°41'1111.3
2015-Mar-01 15:33N 54°30' E 010°22'1110.7
2015-Mar-01 14:33N 54°22' E 010°11'3 3.1
2015-Mar-01 13:33N 54°22' E 010°05'7 7.3
2015-Mar-01 12:33N 54°21' E 009°53'7 7.2
2015-Mar-01 11:33N 54°18' E 009°42'8 7.5
2015-Mar-01 10:33N 54°12' E 009°34'8 7.7
2015-Mar-01 09:32N 54°09' E 009°21'7 6.7
2015-Mar-01 08:34N 54°03' E 009°18'8 7.8
2015-Mar-01 07:33N 53°56' E 009°12'4 3.7
2015-Mar-01 06:33N 53°53' E 009°08'8 8.2
2015-Mar-01 05:33N 53°50' E 009°21'1111.3
2015-Mar-01 04:33N 53°40' E 009°31'1111.2
2015-Mar-01 03:33N 53°34' E 009°46'9 8.9
2015-Mar-01 02:33N 53°30' E 009°59'1 0.6
2015-Mar-01 01:31N 53°29' E 009°59'0 0.0
2015-Mar-01 00:31N 53°29' E 009°59'0 0.0
2015-Feb-28 23:31N 53°29' E 009°59'0 0.0
2015-Feb-28 22:31N 53°29' E 009°59'0 0.0
2015-Feb-28 21:31N 53°29' E 009°59'0 0.0
2015-Feb-28 20:31N 53°29' E 009°59'0 0.0
2015-Feb-28 19:31N 53°29' E 009°59'0 0.0
2015-Feb-28 18:28N 53°29' E 009°59'0 0.0
2015-Feb-28 17:28N 53°29' E 009°59'0 0.0
2015-Feb-28 16:33N 53°29' E 009°59'0 0.0
2015-Feb-28 15:33N 53°29' E 009°59'0 0.0
2015-Feb-28 14:33N 53°29' E 009°59'0 0.0
2015-Feb-28 13:33N 53°29' E 009°59'2 1.5
2015-Feb-28 12:33N 53°30' E 009°58'7 7.3
2015-Feb-28 11:33N 53°34' E 009°47'9 9.3
2015-Feb-28 10:33N 53°37' E 009°32'10 9.9
2015-Feb-28 09:33N 53°46' E 009°24'1010.0
2015-Feb-28 08:33N 53°53' E 009°11'1211.7
2015-Feb-28 07:33N 53°50' E 008°52'1110.9
2015-Feb-28 06:33N 53°57' E 008°37'1211.7
2015-Feb-28 05:33N 53°59' E 008°18'1010.4
2015-Feb-28 04:33N 53°58' E 008°00'1010.2
2015-Feb-28 03:33N 53°56' E 007°44'1010.0
2015-Feb-28 02:33N 53°53' E 007°27'10 9.9
2015-Feb-28 01:33N 53°51' E 007°11'22 9.3
2015-Feb-27 23:09N 53°46' E 006°34'8 8.8
2015-Feb-27 22:16N 53°44' E 006°21'6 8.8
2015-Feb-27 21:32N 53°42' E 006°11'9 8.7
2015-Feb-27 20:33N 53°39' E 005°57'9 8.7
2015-Feb-27 19:33N 53°36' E 005°43'9 8.7
2015-Feb-27 18:33N 53°34' E 005°29'9 8.6
2015-Feb-27 17:33N 53°31' E 005°15'9 8.8
2015-Feb-27 16:33N 53°28' E 005°02'9 9.5
2015-Feb-27 15:33N 53°25' E 004°46'9 8.8
2015-Feb-27 14:33N 53°18' E 004°38'13 9.6
2015-Feb-27 13:11N 53°06' E 004°28'6 9.7
2015-Feb-27 12:33N 53°01' E 004°23'1010.1
2015-Feb-27 11:33N 52°52' E 004°15'9 9.5
2015-Feb-27 10:33N 52°43' E 004°08'9 9.0
2015-Feb-27 09:33N 52°34' E 004°08'8 8.1
2015-Feb-27 08:33N 52°30' E 004°20'8 8.2
2015-Feb-27 07:33N 52°28' E 004°32'3 2.6
2015-Feb-27 06:33N 52°28' E 004°37'9 9.5
2015-Feb-27 05:34N 52°25' E 004°51'1 0.8
2015-Feb-27 04:31N 52°24' E 004°51'0 0.0
2015-Feb-27 03:31N 52°24' E 004°51'0 0.0
2015-Feb-27 02:31N 52°24' E 004°51'0 0.1
2015-Feb-27 01:31N 52°24' E 004°51'0 0.0
2015-Feb-27 00:31N 52°24' E 004°51'0 0.0
2015-Feb-26 23:31N 52°24' E 004°51'0 0.0
2015-Feb-26 22:31N 52°24' E 004°51'0 0.0
2015-Feb-26 21:31N 52°24' E 004°51'0 0.0
2015-Feb-26 20:31N 52°24' E 004°51'0 0.0
2015-Feb-26 19:31N 52°24' E 004°51'0 0.0
2015-Feb-26 18:31N 52°24' E 004°51'0 0.0
2015-Feb-26 17:31N 52°24' E 004°51'0 0.1
2015-Feb-26 16:31N 52°24' E 004°52'0 0.0
2015-Feb-26 15:31N 52°24' E 004°52'0 0.0
2015-Feb-26 14:31N 52°24' E 004°52'0 0.0
2015-Feb-26 13:31N 52°24' E 004°52'0 0.0
2015-Feb-26 12:31N 52°24' E 004°52'0 0.0
2015-Feb-26 11:31N 52°24' E 004°52'0 0.0
2015-Feb-26 10:31N 52°24' E 004°52'0 0.0
2015-Feb-26 09:31N 52°24' E 004°52'0 0.0
2015-Feb-26 08:31N 52°24' E 004°52'0 0.0
2015-Feb-26 07:31N 52°24' E 004°52'0 0.0
2015-Feb-26 06:28N 52°24' E 004°52'0 0.0
2015-Feb-26 05:31N 52°24' E 004°52'0 0.0
2015-Feb-26 04:31N 52°24' E 004°52'0 0.0
2015-Feb-26 03:31N 52°24' E 004°52'0 0.0
2015-Feb-26 02:31N 52°24' E 004°52'0 0.0
2015-Feb-26 01:31N 52°24' E 004°52'0 0.0
2015-Feb-26 00:31N 52°24' E 004°52'0 0.0
2015-Feb-25 23:31N 52°24' E 004°52'0 0.0
2015-Feb-25 22:31N 52°24' E 004°52'0 0.0
2015-Feb-25 21:31N 52°24' E 004°52'0 0.0
2015-Feb-25 20:31N 52°24' E 004°52'0 0.0
2015-Feb-25 19:31N 52°24' E 004°52'0 0.0
2015-Feb-25 18:31N 52°24' E 004°52'0 0.0
2015-Feb-25 17:31N 52°24' E 004°52'0 0.0
2015-Feb-25 16:31N 52°24' E 004°52'0 0.0
2015-Feb-25 15:31N 52°24' E 004°52'0 0.0
2015-Feb-25 14:31N 52°24' E 004°52'0 0.0
2015-Feb-25 13:31N 52°24' E 004°52'0 0.0
2015-Feb-25 12:31N 52°24' E 004°52'0 0.0
2015-Feb-25 11:31N 52°24' E 004°52'0 0.0
2015-Feb-25 10:31N 52°24' E 004°52'0 0.0
2015-Feb-25 09:31N 52°24' E 004°52'0 0.0
2015-Feb-25 08:31N 52°24' E 004°52'0 0.0
2015-Feb-25 07:31N 52°24' E 004°52'0 0.0
2015-Feb-25 06:31N 52°24' E 004°52'0 0.0
2015-Feb-25 05:31N 52°24' E 004°52'0 0.0
2015-Feb-25 04:28N 52°24' E 004°52'0 0.0
2015-Feb-25 03:31N 52°24' E 004°52'0 0.0
2015-Feb-25 02:31N 52°24' E 004°52'0 0.0
2015-Feb-25 01:31N 52°24' E 004°52'0 0.0
2015-Feb-25 00:31N 52°24' E 004°52'0 0.0
2015-Feb-24 23:31N 52°24' E 004°52'0 0.0
2015-Feb-24 22:31N 52°24' E 004°52'0 0.0
2015-Feb-24 21:31N 52°24' E 004°52'0 0.0
2015-Feb-24 20:31N 52°24' E 004°52'0 0.0
2015-Feb-24 19:31N 52°24' E 004°52'0 0.0
2015-Feb-24 18:31N 52°24' E 004°52'0 0.0
2015-Feb-24 17:31N 52°24' E 004°52'0 0.0
2015-Feb-24 16:31N 52°24' E 004°52'0 0.0
2015-Feb-24 15:31N 52°24' E 004°52'0 0.0
2015-Feb-24 14:31N 52°24' E 004°52'0 0.0
2015-Feb-24 13:31N 52°24' E 004°52'0 0.0
2015-Feb-24 12:31N 52°24' E 004°52'0 0.0
2015-Feb-24 11:31N 52°24' E 004°52'0 0.0
2015-Feb-24 10:31N 52°24' E 004°52'0 0.0
2015-Feb-24 09:31N 52°24' E 004°52'0 0.0
2015-Feb-24 08:31N 52°24' E 004°52'0 0.0
2015-Feb-24 07:31N 52°24' E 004°52'0 0.0
2015-Feb-24 06:31N 52°24' E 004°52'0 0.0
2015-Feb-24 05:31N 52°24' E 004°52'0 0.0
2015-Feb-24 04:31N 52°24' E 004°52'0 0.0
2015-Feb-24 03:31N 52°24' E 004°52'0 0.0
2015-Feb-24 02:31N 52°24' E 004°52'0 0.0
2015-Feb-24 01:31N 52°24' E 004°52'0 0.0
2015-Feb-24 00:31N 52°24' E 004°52'0 0.0
2015-Feb-23 23:28N 52°24' E 004°52'  
Track history (hours):
 
Tides and Currents Weather Stations Pressure Air Temp Water Temp Dewpoint Dewpoint Depression Visibility Wind Speed Wind Dir Waves Ship Positions

Clare Christine

Last reported at 2015-Mar-05 23:16 UTC. Time now 2015-Mar-06 04:03 UTC.
Position N 52°52' E 003°23'.

Length 89 m; draft 5.6 m.

Type: Cargo ship. MMSI: 305379000.

Date/timePositionNaut miles runAvg speedWind from/ knotsBaromVisibWave heightAir tempDewpointWater temp
2015-Mar-05 23:16N 52°52' E 003°23'9 8.5
2015-Mar-05 22:12N 52°53' E 003°37'17 9.1
2015-Mar-05 20:17N 52°59' E 004°05'8 9.7
2015-Mar-05 19:27N 53°04' E 004°15'8 8.9
2015-Mar-05 18:33N 53°10' E 004°25'9 8.6
2015-Mar-05 17:30N 53°18' E 004°31'8 8.2
2015-Mar-05 16:30N 53°25' E 004°36'7 7.8
2015-Mar-05 15:33N 53°30' E 004°46'10 9.6
2015-Mar-05 14:33N 53°33' E 005°01'1010.4
2015-Mar-05 13:33N 53°37' E 005°17'1010.4
2015-Mar-05 12:33N 53°40' E 005°34'1010.1
2015-Mar-05 11:33N 53°43' E 005°50'10 9.3
2015-Mar-05 10:28N 53°46' E 006°06'8 8.7
2015-Mar-05 09:32N 53°49' E 006°20'32 8.2
2015-Mar-05 05:33N 53°57' E 007°13'9 9.4
2015-Mar-05 04:33N 53°60' E 007°28'9 9.4
2015-Mar-05 03:33N 54°02' E 007°43'9 9.4
2015-Mar-05 02:33N 54°02' E 007°60'10 9.5
2015-Mar-05 01:32N 54°01' E 008°16'1010.1
2015-Mar-05 00:33N 53°58' E 008°32'7 7.1
2015-Mar-04 23:33N 53°54' E 008°42'7 6.8
2015-Mar-04 22:33N 53°50' E 008°52'7 7.5
2015-Mar-04 21:33N 53°52' E 009°04'3 3.0
2015-Mar-04 20:33N 53°54' E 009°09'5 5.4
2015-Mar-04 19:34N 53°58' E 009°15'9 8.7
2015-Mar-04 18:33N 54°06' E 009°20'8 7.9
2015-Mar-04 17:32N 54°11' E 009°30'8 7.8
2015-Mar-04 16:33N 54°17' E 009°39'7 6.7
2015-Mar-04 15:33N 54°21' E 009°47'8 7.7
2015-Mar-04 14:33N 54°21' E 010°00'5 4.8
2015-Mar-04 13:33N 54°22' E 010°08'0 0.4
2015-Mar-04 12:33N 54°22' E 010°09'6 5.9
2015-Mar-04 11:33N 54°27' E 010°14'9 8.6
2015-Mar-04 10:34N 54°32' E 010°26'9 8.9
2015-Mar-04 09:33N 54°35' E 010°41'9 9.0
2015-Mar-04 08:33N 54°36' E 010°56'9 8.9
2015-Mar-04 07:33N 54°36' E 011°11'8 8.2
2015-Mar-04 06:33N 54°32' E 011°24'8 8.1
2015-Mar-04 05:33N 54°29' E 011°37'8 8.3
2015-Mar-04 04:33N 54°27' E 011°51'9 8.6
2015-Mar-04 03:33N 54°27' E 012°05'13 8.6
2015-Mar-04 02:03N 54°38' E 012°17'5 9.1
2015-Mar-04 01:32N 54°40' E 012°24'9 9.1
2015-Mar-04 00:33N 54°45' E 012°37'10 9.5
2015-Mar-03 23:32N 54°49' E 012°52'9 9.7
2015-Mar-03 22:33N 54°52' E 013°07'9 8.3
2015-Mar-03 21:26N 54°53' E 013°24'9 9.4
2015-Mar-03 20:26N 54°46' E 013°35'10 9.6
2015-Mar-03 19:24N 54°38' E 013°43'810.0
2015-Mar-03 18:33N 54°30' E 013°49'1010.0
2015-Mar-03 17:33N 54°20' E 013°50'9 9.0
2015-Mar-03 16:33N 54°13' E 013°40'5 5.3
2015-Mar-03 15:33N 54°09' E 013°34'1 1.1
2015-Mar-03 14:32N 54°08' E 013°34'0 0.0
2015-Mar-03 13:32N 54°08' E 013°34'0 0.0
2015-Mar-03 12:32N 54°08' E 013°34'0 0.0
2015-Mar-03 11:32N 54°08' E 013°34'0 0.0
2015-Mar-03 10:32N 54°08' E 013°34'0 0.0
2015-Mar-03 09:32N 54°08' E 013°34'0 0.0
2015-Mar-03 08:32N 54°08' E 013°34'0 0.0
2015-Mar-03 07:32N 54°08' E 013°34'0 0.0
2015-Mar-03 06:32N 54°08' E 013°34'0 0.0
2015-Mar-03 05:32N 54°08' E 013°34'0 0.0
2015-Mar-03 04:32N 54°08' E 013°34'0 0.0
2015-Mar-03 03:32N 54°08' E 013°34'0 0.0
2015-Mar-03 02:32N 54°08' E 013°34'0 0.0
2015-Mar-03 01:32N 54°08' E 013°34'0 0.0
2015-Mar-03 00:32N 54°08' E 013°34'0 0.0
2015-Mar-02 23:32N 54°08' E 013°34'0 0.0
2015-Mar-02 22:32N 54°08' E 013°34'0 0.0
2015-Mar-02 21:32N 54°08' E 013°34'0 0.0
2015-Mar-02 20:32N 54°08' E 013°34'0 0.0
2015-Mar-02 19:32N 54°08' E 013°34'0 0.0
2015-Mar-02 18:32N 54°08' E 013°34'0 0.0
2015-Mar-02 17:32N 54°08' E 013°34'0 0.0
2015-Mar-02 16:29N 54°08' E 013°34'0 0.0
2015-Mar-02 15:32N 54°08' E 013°34'0 0.0
2015-Mar-02 14:32N 54°08' E 013°34'0 0.0
2015-Mar-02 13:32N 54°08' E 013°34'0 0.0
2015-Mar-02 12:32N 54°08' E 013°34'0 0.0
2015-Mar-02 11:32N 54°08' E 013°34'0 0.0
2015-Mar-02 10:32N 54°08' E 013°34'0 0.0
2015-Mar-02 09:32N 54°08' E 013°34'0 0.0
2015-Mar-02 08:33N 54°08' E 013°34'3 3.0
2015-Mar-02 07:33N 54°11' E 013°35'8 7.8
2015-Mar-02 06:33N 54°16' E 013°45'8 7.7
2015-Mar-02 05:33N 54°23' E 013°49'10 9.6
2015-Mar-02 04:33N 54°33' E 013°44'1010.3
2015-Mar-02 03:33N 54°42' E 013°36'9 9.0
2015-Mar-02 02:33N 54°45' E 013°22'1010.3
2015-Mar-02 01:33N 54°45' E 013°04'1010.2
2015-Mar-02 00:33N 54°45' E 012°46'1010.4
2015-Mar-01 23:33N 54°40' E 012°31'1110.5
2015-Mar-01 22:33N 54°32' E 012°18'1010.2
2015-Mar-01 21:33N 54°24' E 012°07'1111.3
2015-Mar-01 20:33N 54°24' E 011°48'1111.2
2015-Mar-01 19:33N 54°29' E 011°31'10 9.7
2015-Mar-01 18:33N 54°34' E 011°16'9 9.4
2015-Mar-01 17:33N 54°34' E 010°60'1111.0
2015-Mar-01 16:33N 54°34' E 010°41'1111.3
2015-Mar-01 15:33N 54°30' E 010°22'1110.7
2015-Mar-01 14:33N 54°22' E 010°11'3 3.1
2015-Mar-01 13:33N 54°22' E 010°05'7 7.3
2015-Mar-01 12:33N 54°21' E 009°53'7 7.2
2015-Mar-01 11:33N 54°18' E 009°42'8 7.5
2015-Mar-01 10:33N 54°12' E 009°34'8 7.7
2015-Mar-01 09:32N 54°09' E 009°21'7 6.7
2015-Mar-01 08:34N 54°03' E 009°18'8 7.8
2015-Mar-01 07:33N 53°56' E 009°12'4 3.7
2015-Mar-01 06:33N 53°53' E 009°08'8 8.2
2015-Mar-01 05:33N 53°50' E 009°21'1111.3
2015-Mar-01 04:33N 53°40' E 009°31'1111.2
2015-Mar-01 03:33N 53°34' E 009°46'9 8.9
2015-Mar-01 02:33N 53°30' E 009°59'1 0.6
2015-Mar-01 01:31N 53°29' E 009°59'0 0.0
2015-Mar-01 00:31N 53°29' E 009°59'0 0.0
2015-Feb-28 23:31N 53°29' E 009°59'0 0.0
2015-Feb-28 22:31N 53°29' E 009°59'0 0.0
2015-Feb-28 21:31N 53°29' E 009°59'0 0.0
2015-Feb-28 20:31N 53°29' E 009°59'0 0.0
2015-Feb-28 19:31N 53°29' E 009°59'0 0.0
2015-Feb-28 18:28N 53°29' E 009°59'0 0.0
2015-Feb-28 17:28N 53°29' E 009°59'0 0.0
2015-Feb-28 16:33N 53°29' E 009°59'0 0.0
2015-Feb-28 15:33N 53°29' E 009°59'0 0.0
2015-Feb-28 14:33N 53°29' E 009°59'0 0.0
2015-Feb-28 13:33N 53°29' E 009°59'2 1.5
2015-Feb-28 12:33N 53°30' E 009°58'7 7.3
2015-Feb-28 11:33N 53°34' E 009°47'9 9.3
2015-Feb-28 10:33N 53°37' E 009°32'10 9.9
2015-Feb-28 09:33N 53°46' E 009°24'1010.0
2015-Feb-28 08:33N 53°53' E 009°11'1211.7
2015-Feb-28 07:33N 53°50' E 008°52'1110.9
2015-Feb-28 06:33N 53°57' E 008°37'1211.7
2015-Feb-28 05:33N 53°59' E 008°18'1010.4
2015-Feb-28 04:33N 53°58' E 008°00'1010.2
2015-Feb-28 03:33N 53°56' E 007°44'1010.0
2015-Feb-28 02:33N 53°53' E 007°27'10 9.9
2015-Feb-28 01:33N 53°51' E 007°11'22 9.3
2015-Feb-27 23:09N 53°46' E 006°34'8 8.8
2015-Feb-27 22:16N 53°44' E 006°21'6 8.8
2015-Feb-27 21:32N 53°42' E 006°11'9 8.7
2015-Feb-27 20:33N 53°39' E 005°57'9 8.7
2015-Feb-27 19:33N 53°36' E 005°43'9 8.7
2015-Feb-27 18:33N 53°34' E 005°29'9 8.6
2015-Feb-27 17:33N 53°31' E 005°15'9 8.8
2015-Feb-27 16:33N 53°28' E 005°02'9 9.5
2015-Feb-27 15:33N 53°25' E 004°46'9 8.8
2015-Feb-27 14:33N 53°18' E 004°38'13 9.6
2015-Feb-27 13:11N 53°06' E 004°28'6 9.7
2015-Feb-27 12:33N 53°01' E 004°23'1010.1
2015-Feb-27 11:33N 52°52' E 004°15'9 9.5
2015-Feb-27 10:33N 52°43' E 004°08'9 9.0
2015-Feb-27 09:33N 52°34' E 004°08'8 8.1
2015-Feb-27 08:33N 52°30' E 004°20'8 8.2
2015-Feb-27 07:33N 52°28' E 004°32'3 2.6
2015-Feb-27 06:33N 52°28' E 004°37'9 9.5
2015-Feb-27 05:34N 52°25' E 004°51'1 0.8
2015-Feb-27 04:31N 52°24' E 004°51'0 0.0
2015-Feb-27 03:31N 52°24' E 004°51'0 0.0
2015-Feb-27 02:31N 52°24' E 004°51'0 0.1
2015-Feb-27 01:31N 52°24' E 004°51'0 0.0
2015-Feb-27 00:31N 52°24' E 004°51'0 0.0
2015-Feb-26 23:31N 52°24' E 004°51'0 0.0
2015-Feb-26 22:31N 52°24' E 004°51'0 0.0
2015-Feb-26 21:31N 52°24' E 004°51'0 0.0
2015-Feb-26 20:31N 52°24' E 004°51'0 0.0
2015-Feb-26 19:31N 52°24' E 004°51'0 0.0
2015-Feb-26 18:31N 52°24' E 004°51'0 0.0
2015-Feb-26 17:31N 52°24' E 004°51'0 0.1
2015-Feb-26 16:31N 52°24' E 004°52'0 0.0
2015-Feb-26 15:31N 52°24' E 004°52'0 0.0
2015-Feb-26 14:31N 52°24' E 004°52'0 0.0
2015-Feb-26 13:31N 52°24' E 004°52'0 0.0
2015-Feb-26 12:31N 52°24' E 004°52'0 0.0
2015-Feb-26 11:31N 52°24' E 004°52'0 0.0
2015-Feb-26 10:31N 52°24' E 004°52'0 0.0
2015-Feb-26 09:31N 52°24' E 004°52'0 0.0
2015-Feb-26 08:31N 52°24' E 004°52'0 0.0
2015-Feb-26 07:31N 52°24' E 004°52'0 0.0
2015-Feb-26 06:28N 52°24' E 004°52'0 0.0
2015-Feb-26 05:31N 52°24' E 004°52'0 0.0
2015-Feb-26 04:31N 52°24' E 004°52'0 0.0
2015-Feb-26 03:31N 52°24' E 004°52'0 0.0
2015-Feb-26 02:31N 52°24' E 004°52'0 0.0
2015-Feb-26 01:31N 52°24' E 004°52'0 0.0
2015-Feb-26 00:31N 52°24' E 004°52'0 0.0
2015-Feb-25 23:31N 52°24' E 004°52'0 0.0
2015-Feb-25 22:31N 52°24' E 004°52'0 0.0
2015-Feb-25 21:31N 52°24' E 004°52'0 0.0
2015-Feb-25 20:31N 52°24' E 004°52'0 0.0
2015-Feb-25 19:31N 52°24' E 004°52'0 0.0
2015-Feb-25 18:31N 52°24' E 004°52'0 0.0
2015-Feb-25 17:31N 52°24' E 004°52'0 0.0
2015-Feb-25 16:31N 52°24' E 004°52'0 0.0
2015-Feb-25 15:31N 52°24' E 004°52'0 0.0
2015-Feb-25 14:31N 52°24' E 004°52'0 0.0
2015-Feb-25 13:31N 52°24' E 004°52'0 0.0
2015-Feb-25 12:31N 52°24' E 004°52'0 0.0
2015-Feb-25 11:31N 52°24' E 004°52'0 0.0
2015-Feb-25 10:31N 52°24' E 004°52'0 0.0
2015-Feb-25 09:31N 52°24' E 004°52'0 0.0
2015-Feb-25 08:31N 52°24' E 004°52'0 0.0
2015-Feb-25 07:31N 52°24' E 004°52'0 0.0
2015-Feb-25 06:31N 52°24' E 004°52'0 0.0
2015-Feb-25 05:31N 52°24' E 004°52'0 0.0
2015-Feb-25 04:28N 52°24' E 004°52'0 0.0
2015-Feb-25 03:31N 52°24' E 004°52'0 0.0
2015-Feb-25 02:31N 52°24' E 004°52'0 0.0
2015-Feb-25 01:31N 52°24' E 004°52'0 0.0
2015-Feb-25 00:31N 52°24' E 004°52'0 0.0
2015-Feb-24 23:31N 52°24' E 004°52'0 0.0
2015-Feb-24 22:31N 52°24' E 004°52'0 0.0
2015-Feb-24 21:31N 52°24' E 004°52'0 0.0
2015-Feb-24 20:31N 52°24' E 004°52'0 0.0
2015-Feb-24 19:31N 52°24' E 004°52'0 0.0
2015-Feb-24 18:31N 52°24' E 004°52'0 0.0
2015-Feb-24 17:31N 52°24' E 004°52'0 0.0
2015-Feb-24 16:31N 52°24' E 004°52'0 0.0
2015-Feb-24 15:31N 52°24' E 004°52'0 0.0
2015-Feb-24 14:31N 52°24' E 004°52'0 0.0
2015-Feb-24 13:31N 52°24' E 004°52'0 0.0
2015-Feb-24 12:31N 52°24' E 004°52'0 0.0
2015-Feb-24 11:31N 52°24' E 004°52'0 0.0
2015-Feb-24 10:31N 52°24' E 004°52'0 0.0
2015-Feb-24 09:31N 52°24' E 004°52'0 0.0
2015-Feb-24 08:31N 52°24' E 004°52'0 0.0
2015-Feb-24 07:31N 52°24' E 004°52'0 0.0
2015-Feb-24 06:31N 52°24' E 004°52'0 0.0
2015-Feb-24 05:31N 52°24' E 004°52'0 0.0
2015-Feb-24 04:31N 52°24' E 004°52'0 0.0
2015-Feb-24 03:31N 52°24' E 004°52'0 0.0
2015-Feb-24 02:31N 52°24' E 004°52'0 0.0
2015-Feb-24 01:31N 52°24' E 004°52'0 0.0
2015-Feb-24 00:31N 52°24' E 004°52'0 0.0
2015-Feb-23 23:28N 52°24' E 004°52'  

Dump ship's entire track history